Time;durP1;ratioP1;P1;durP2;ratioP2;P2;SDS_P1;SDS_P2;PMS_P1;PMS_P2;Temp;Humidity;BMP_temperature;BMP_pressure;BME280_temperature;BME280_humidity;BME280_pressure;Samples;Min_cycle;Max_cycle;Signal;HPM_P1;HPM_P2
2023/09/28 00:01:03;;;;;;;4.18;3.22;;;;;;;13.74;91.48;100659.34;5054100;28;20114;-72
2023/09/28 00:04:06;;;;;;;15.77;3.20;;;;;;;13.76;91.54;100659.25;5054113;28;20531;-72
2023/09/28 00:07:09;;;;;;;5.28;2.92;;;;;;;13.78;91.26;100668.72;5054041;28;20110;-72
2023/09/28 00:10:15;;;;;;;6.78;4.00;;;;;;;13.78;91.23;100667.88;5054113;28;20040;-72
2023/09/28 00:13:18;;;;;;;7.28;3.33;;;;;;;13.79;91.37;100656.44;5053959;28;20550;-72
2023/09/28 00:16:22;;;;;;;5.20;3.67;;;;;;;13.58;92.66;100677.84;5053850;28;20455;-72
2023/09/28 00:19:27;;;;;;;;;;;;;;;13.55;93.52;100685.94;5054199;28;20052;-72
2023/09/28 00:22:30;;;;;;;5.85;3.10;;;;;;;13.61;93.41;100688.19;5053230;28;19919;-72
2023/09/28 00:25:33;;;;;;;6.63;3.67;;;;;;;13.56;94.08;100681.50;5053739;28;20098;-72
2023/09/28 00:28:37;;;;;;;16.20;5.53;;;;;;;13.65;93.91;100687.03;5053636;28;20540;-72
2023/09/28 00:31:40;;;;;;;9.65;3.47;;;;;;;13.77;93.26;100664.41;5052709;28;20082;-72
2023/09/28 00:34:43;;;;;;;8.85;3.70;;;;;;;13.80;92.63;100668.63;5052880;28;20381;-72
2023/09/28 00:37:48;;;;;;;5.60;3.50;;;;;;;13.81;92.54;100662.44;5052927;28;20508;-72
2023/09/28 00:40:51;;;;;;;9.93;3.42;;;;;;;13.89;92.23;100676.78;5052782;28;20094;-71
2023/09/28 00:43:55;;;;;;;9.70;3.60;;;;;;;13.89;92.07;100675.94;5052533;28;20048;-72
2023/09/28 00:47:01;;;;;;;5.97;2.97;;;;;;;13.88;92.09;100690.00;5053253;28;20094;-72
2023/09/28 00:50:10;;;;;;;6.25;3.00;;;;;;;13.84;92.22;100693.78;5052507;28;20405;-72
2023/09/28 00:53:14;;;;;;;7.10;3.00;;;;;;;13.91;91.66;100681.91;5052091;28;20471;-72
2023/09/28 00:56:19;;;;;;;5.38;3.35;;;;;;;13.81;92.29;100678.19;5053193;28;20430;-72
2023/09/28 00:59:22;;;;;;;7.20;3.55;;;;;;;13.83;92.46;100668.44;5053093;28;20096;-72
2023/09/28 01:02:26;;;;;;;6.80;3.20;;;;;;;13.82;92.28;100658.88;5052208;28;20621;-71
2023/09/28 01:05:33;;;;;;;5.72;3.08;;;;;;;13.78;92.42;100662.63;5052980;28;20520;-71
2023/09/28 01:08:37;;;;;;;5.68;3.03;;;;;;;13.81;92.29;100655.38;5053003;28;20095;-71
2023/09/28 01:11:41;;;;;;;4.75;2.80;;;;;;;13.84;91.98;100667.50;5053013;28;20102;-71
2023/09/28 01:14:47;;;;;;;4.90;3.15;;;;;;;13.78;92.48;100665.25;5052928;28;20102;-72
2023/09/28 01:17:52;;;;;;;7.32;3.42;;;;;;;13.81;92.46;100658.00;5052071;28;20040;-72
2023/09/28 01:20:55;;;;;;;4.40;2.78;;;;;;;13.86;92.43;100649.84;5052033;28;20095;-71
2023/09/28 01:23:58;;;;;;;6.97;3.13;;;;;;;13.85;92.50;100669.19;5052806;28;20094;-71
2023/09/28 01:27:02;;;;;;;5.43;3.45;;;;;;;13.67;93.75;100677.28;5052753;28;20072;-71
2023/09/28 01:30:06;;;;;;;9.10;3.47;;;;;;;13.76;93.75;100669.78;5052711;28;20052;-72
2023/09/28 01:33:09;;;;;;;11.60;3.28;;;;;;;13.79;93.44;100695.88;5052689;28;20647;-72
2023/09/28 01:36:12;;;;;;;8.02;3.83;;;;;;;13.77;94.01;100687.22;5051842;28;20503;-71
2023/09/28 01:39:16;;;;;;;8.05;2.92;;;;;;;13.83;93.71;100677.16;5052570;28;20417;-72
2023/09/28 01:42:19;;;;;;;8.05;4.03;;;;;;;13.86;93.38;100657.72;5052655;28;20052;-72
2023/09/28 01:45:22;;;;;;;8.65;3.28;;;;;;;13.89;93.13;100657.53;5052790;28;20104;-71
2023/09/28 01:48:26;;;;;;;4.97;2.90;;;;;;;13.87;93.18;100662.03;5051738;28;20048;-72
2023/09/28 01:51:29;;;;;;;4.95;3.13;;;;;;;13.87;93.38;100662.88;5063316;28;20044;-72
2023/09/28 01:54:32;;;;;;;6.25;3.70;;;;;;;13.72;94.10;100674.38;5056305;28;20055;-72
2023/09/28 01:57:37;;;;;;;6.28;3.55;;;;;;;13.77;93.63;100676.72;5055699;28;20523;-72
2023/09/28 02:00:44;;;;;;;6.00;3.28;;;;;;;13.78;93.96;100684.47;5055528;28;20067;-72
2023/09/28 02:03:47;;;;;;;8.73;3.00;;;;;;;13.76;94.01;100682.91;5056658;28;20110;-72
2023/09/28 02:06:51;;;;;;;6.32;3.60;;;;;;;13.72;94.47;100688.38;5056642;28;20098;-72
2023/09/28 02:09:54;;;;;;;6.63;3.53;;;;;;;13.69;94.73;100699.06;5056347;28;20511;-71
2023/09/28 02:13:00;;;;;;;5.25;3.03;;;;;;;13.78;94.46;100702.03;5055461;28;20473;-72
2023/09/28 02:16:08;;;;;;;5.40;3.67;;;;;;;13.75;94.71;100691.72;5056268;28;20095;-72
2023/09/28 02:19:13;;;;;;;6.38;3.25;;;;;;;13.78;94.35;100691.53;5055160;28;20048;-72
2023/09/28 02:22:16;;;;;;;11.63;2.97;;;;;;;13.81;94.03;100689.53;5056104;28;20528;-72
2023/09/28 02:25:23;;;;;;;5.40;3.00;;;;;;;13.84;93.88;100672.75;5055477;28;20047;-72
2023/09/28 02:28:26;;;;;;;5.90;3.65;;;;;;;13.81;93.94;100684.28;5056227;28;20056;-72
2023/09/28 02:31:31;;;;;;;5.97;3.17;;;;;;;13.77;94.23;100688.06;5055807;28;20474;-72
2023/09/28 02:34:35;;;;;;;5.43;3.30;;;;;;;13.66;95.07;100696.63;5055893;28;20043;-72
2023/09/28 02:37:38;;;;;;;7.45;3.53;;;;;;;13.66;95.54;100696.63;5054905;28;20067;-72
2023/09/28 02:40:41;;;;;;;6.30;3.58;;;;;;;13.72;94.97;100698.88;5055668;28;20460;-71
2023/09/28 02:43:45;;;;;;;8.40;3.45;;;;;;;13.70;94.75;100698.13;5055656;28;20546;-71
2023/09/28 02:46:50;;;;;;;12.45;4.25;;;;;;;13.65;95.05;100681.78;5054893;28;20043;-72
2023/09/28 02:49:54;;;;;;;7.55;3.33;;;;;;;13.62;95.45;100692.47;5054647;28;20039;-71
2023/09/28 02:52:57;;;;;;;7.05;3.47;;;;;;;13.65;95.06;100694.91;5055361;28;20067;-72
2023/09/28 02:56:02;;;;;;;5.95;3.75;;;;;;;13.58;95.79;100691.00;5055393;28;20417;-72
2023/09/28 02:59:06;;;;;;;7.70;3.30;;;;;;;13.48;96.19;100697.75;5054551;28;20060;-71
2023/09/28 03:02:09;;;;;;;7.93;3.10;;;;;;;13.58;95.72;100693.63;5054565;28;20066;-72
2023/09/28 03:05:18;;;;;;;7.10;3.30;;;;;;;13.59;95.73;100690.06;5054329;28;20404;-71
2023/09/28 03:08:22;;;;;;;6.22;3.55;;;;;;;13.56;95.59;100685.00;5055267;28;20120;-72
2023/09/28 03:11:25;;;;;;;6.57;2.70;;;;;;;13.53;95.65;100698.34;5055182;28;20071;-72
2023/09/28 03:14:29;;;;;;;4.68;2.92;;;;;;;13.52;95.99;100698.41;5055001;28;20040;-72
2023/09/28 03:17:32;;;;;;;8.43;3.15;;;;;;;13.48;96.07;100700.38;5054205;28;20090;-72
2023/09/28 03:20:35;;;;;;;9.02;3.42;;;;;;;13.41;96.36;100706.97;5054965;28;20047;-72
2023/09/28 03:23:39;;;;;;;5.43;3.50;;;;;;;13.42;96.04;100706.00;5054937;28;20667;-72
2023/09/28 03:26:42;;;;;;;6.85;3.30;;;;;;;13.35;96.56;100702.09;5054069;28;20043;-72
2023/09/28 03:29:45;;;;;;;7.18;3.25;;;;;;;13.38;96.12;100700.09;5054773;28;20109;-72
2023/09/28 03:32:48;;;;;;;6.25;3.08;;;;;;;13.37;95.83;100705.44;5054787;28;20095;-72
2023/09/28 03:35:52;;;;;;;4.43;3.15;;;;;;;13.34;95.55;100698.63;5054652;28;20098;-75
2023/09/28 03:38:55;;;;;;;5.65;3.08;;;;;;;13.28;96.03;100700.78;5054543;28;20102;-71
2023/09/28 03:41:58;;;;;;;8.63;3.00;;;;;;;13.27;95.87;100710.41;5042436;28;20048;-73
2023/09/28 03:45:02;;;;;;;4.13;3.17;;;;;;;13.24;95.62;100700.97;5054361;28;20056;-72
2023/09/28 03:48:05;;;;;;;5.30;3.60;;;;;;;13.26;95.32;100720.06;5054367;28;20417;-71
2023/09/28 03:51:10;;;;;;;4.03;3.30;;;;;;;13.18;95.77;100711.78;5054372;28;20088;-72
2023/09/28 03:54:13;;;;;;;6.28;3.25;;;;;;;13.18;94.93;100716.22;5053959;28;20051;-72
2023/09/28 03:57:17;;;;;;;4.82;3.38;;;;;;;13.14;95.31;100733.91;5053537;28;20085;-73
2023/09/28 04:00:20;;;;;;;10.80;3.92;;;;;;;13.11;95.83;100718.31;5053885;28;20052;-73
2023/09/28 04:03:24;;;;;;;5.78;3.40;;;;;;;13.12;95.90;100724.44;5054123;28;20496;-73
2023/09/28 04:06:27;;;;;;;7.35;4.70;;;;;;;13.05;95.06;100731.84;5053148;28;20051;-75
2023/09/28 04:09:32;;;;;;;10.18;4.45;;;;;;;13.09;94.92;100722.00;5053949;28;20035;-72
2023/09/28 04:12:36;;;;;;;7.28;4.15;;;;;;;13.06;95.29;100743.19;5054497;28;20047;-72
2023/09/28 04:15:41;;;;;;;11.48;4.05;;;;;;;12.99;95.40;100742.72;5053065;28;20055;-72
2023/09/28 04:18:44;;;;;;;;;;;;;;;12.99;94.53;100735.66;5054221;28;20392;-72
2023/09/28 04:21:48;;;;;;;6.32;3.95;;;;;;;13.03;94.44;100736.34;5053583;28;19921;-71
2023/09/28 04:24:51;;;;;;;8.35;4.55;;;;;;;12.98;94.28;100730.50;5053816;28;20150;-71
2023/09/28 04:27:55;;;;;;;6.05;3.97;;;;;;;12.94;93.85;100739.50;5053634;28;20086;-71
2023/09/28 04:30:59;;;;;;;4.82;3.58;;;;;;;12.91;93.96;100742.31;5053679;28;20095;-75
2023/09/28 04:34:02;;;;;;;;;;;;;;;12.94;93.89;100745.59;5053112;28;20519;-72
2023/09/28 04:37:05;;;;;;;8.85;4.10;;;;;;;12.99;93.72;100738.28;5053476;28;20430;-71
2023/09/28 04:40:10;;;;;;;11.32;3.63;;;;;;;12.74;96.30;100743.28;5052974;28;20200;-66
2023/09/28 04:43:14;;;;;;;6.35;4.03;;;;;;;12.72;95.59;100739.91;5053607;28;20113;-74
2023/09/28 04:46:17;;;;;;;6.68;4.13;;;;;;;12.78;95.11;100753.50;5052295;28;20051;-73
2023/09/28 04:49:21;;;;;;;7.75;4.28;;;;;;;12.75;95.36;100742.34;5061836;28;20130;-73
2023/09/28 04:52:24;;;;;;;6.75;4.30;;;;;;;12.74;94.95;100766.91;5050339;28;20060;-73
2023/09/28 04:55:29;;;;;;;6.05;4.30;;;;;;;12.76;94.56;100758.00;5031461;28;20163;-83
2023/09/28 04:58:32;;;;;;;10.40;4.88;;;;;;;12.79;97.35;100762.22;5031138;28;20102;-61
2023/09/28 05:01:36;;;;;;;9.52;5.00;;;;;;;12.68;95.97;100757.59;5032597;28;20100;-80
2023/09/28 05:04:39;;;;;;;5.40;4.22;;;;;;;12.73;95.18;100758.19;5033119;28;20549;-83
2023/09/28 05:07:42;;;;;;;9.80;4.82;;;;;;;12.70;94.71;100773.22;5032323;28;20048;-80
2023/09/28 05:10:46;;;;;;;8.02;5.70;;;;;;;12.71;95.36;100764.44;5033061;28;20127;-83
2023/09/28 05:13:51;;;;;;;8.65;4.80;;;;;;;12.74;95.00;100765.13;5033075;28;20045;-79
2023/09/28 05:16:55;;;;;;;7.03;4.50;;;;;;;12.81;93.99;100765.59;5033060;28;20132;-81
2023/09/28 05:19:58;;;;;;;6.28;4.32;;;;;;;12.80;93.53;100759.53;5032336;28;20100;-79
2023/09/28 05:23:01;;;;;;;10.02;5.10;;;;;;;12.72;94.07;100761.72;5031405;28;20140;-81
2023/09/28 05:26:05;;;;;;;11.52;6.03;;;;;;;12.75;93.99;100756.31;5031410;28;20048;-81
2023/09/28 05:29:08;;;;;;;12.88;5.78;;;;;;;12.77;93.85;100759.69;5031424;28;20469;-79
2023/09/28 05:32:18;;;;;;;8.32;5.20;;;;;;;12.76;94.11;100759.75;5031877;28;20045;-86
2023/09/28 05:35:25;;;;;;;7.40;5.53;;;;;;;12.64;95.66;100750.84;5030825;28;20075;-84
2023/09/28 05:38:28;;;;;;;9.73;4.90;;;;;;;12.71;95.22;100760.03;5031691;28;20040;-80
2023/09/28 05:41:32;;;;;;;;;;;;;;;12.72;95.03;100756.47;5032391;28;20487;-81
2023/09/28 05:44:35;;;;;;;9.38;5.07;;;;;;;12.74;95.03;100759.88;5031424;28;20384;-83
2023/09/28 05:47:38;;;;;;;7.53;5.25;;;;;;;12.74;95.03;100759.88;5031766;28;20056;-86
2023/09/28 05:50:42;;;;;;;8.50;5.60;;;;;;;12.73;94.88;100760.81;5031796;28;20151;-84
2023/09/28 05:53:46;;;;;;;7.32;4.85;;;;;;;12.74;95.05;100780.84;5036637;28;20059;-80
2023/09/28 05:56:49;;;;;;;8.10;4.70;;;;;;;12.81;94.67;100781.34;5051441;28;20048;-81
2023/09/28 05:59:53;;;;;;;9.50;5.38;;;;;;;12.82;94.59;100790.06;5050515;28;20523;-81
2023/09/28 06:02:58;;;;;;;8.77;5.68;;;;;;;12.82;95.17;100797.94;5049026;28;20247;-81
2023/09/28 06:06:13;;;;;;;12.95;5.90;;;;;;;12.83;95.42;100797.00;5051218;28;20121;-81
2023/09/28 06:09:18;;;;;;;12.52;5.68;;;;;;;12.91;95.35;100797.41;5051214;28;20040;-81
2023/09/28 06:12:22;;;;;;;12.35;6.70;;;;;;;12.95;95.20;100793.66;5051095;28;20130;-81
2023/09/28 06:15:25;;;;;;;12.18;5.90;;;;;;;12.96;95.35;100793.59;5050933;28;20116;-81
2023/09/28 06:18:28;;;;;;;11.57;6.68;;;;;;;12.96;95.91;100795.38;5050809;28;20051;-81
2023/09/28 06:21:32;;;;;;;12.07;7.40;;;;;;;12.95;96.38;100791.03;5050956;28;20451;-81
2023/09/28 06:24:38;;;;;;;12.30;7.70;;;;;;;12.97;96.64;100790.03;5050870;28;20091;-81
2023/09/28 06:27:42;;;;;;;13.43;7.28;;;;;;;13.06;95.79;100791.28;5051016;28;20124;-81
2023/09/28 06:30:45;;;;;;;11.32;7.25;;;;;;;12.83;97.71;100800.50;5051006;28;20467;-81
2023/09/28 06:33:50;;;;;;;19.65;9.35;;;;;;;12.62;100.00;100807.78;5051480;28;20119;-81
2023/09/28 06:36:55;;;;;;;12.77;9.23;;;;;;;12.72;100.00;100802.88;5050891;28;20082;-81
2023/09/28 06:39:59;;;;;;;12.00;9.73;;;;;;;12.49;100.00;100809.41;5054235;28;20048;-82
2023/09/28 06:43:02;;;;;;;17.40;10.05;;;;;;;12.74;100.00;100807.09;5054376;28;20091;-81
2023/09/28 06:46:06;;;;;;;;;;;;;;;12.84;100.00;100802.16;5055006;28;20500;-81
2023/09/28 06:49:11;;;;;;;12.38;8.43;;;;;;;12.97;100.00;100815.44;5054219;28;20018;-81
2023/09/28 06:52:14;;;;;;;11.90;9.43;;;;;;;13.12;99.90;100817.19;5054154;28;20541;-81
2023/09/28 06:55:18;;;;;;;13.55;8.77;;;;;;;13.20;99.28;100820.19;5053279;28;20122;-81
2023/09/28 06:58:22;;;;;;;11.88;9.80;;;;;;;13.28;99.09;100826.81;5053311;28;20543;-81
2023/09/28 07:01:26;;;;;;;12.13;8.50;;;;;;;13.30;99.21;100828.41;5053623;28;20395;-81
2023/09/28 07:04:30;;;;;;;14.15;8.95;;;;;;;13.36;98.80;100830.66;5053507;28;20219;-81
2023/09/28 07:07:33;;;;;;;13.02;9.02;;;;;;;13.35;98.62;100839.50;5053530;28;20534;-81
2023/09/28 07:10:39;;;;;;;12.55;9.43;;;;;;;13.29;98.92;100849.50;5053884;28;20110;-81
2023/09/28 07:13:44;;;;;;;13.07;8.35;;;;;;;13.32;98.68;100847.56;5054172;28;20106;-81
2023/09/28 07:16:47;;;;;;;10.82;9.25;;;;;;;13.18;100.00;100847.50;5053924;28;20250;-81
2023/09/28 07:19:50;;;;;;;10.27;7.93;;;;;;;13.26;100.00;100846.13;5053860;28;20454;-81
2023/09/28 07:22:54;;;;;;;8.73;7.85;;;;;;;13.36;100.00;100841.16;5053697;28;20507;-81
2023/09/28 07:25:57;;;;;;;7.82;6.53;;;;;;;13.38;99.99;100833.22;5053952;28;20595;-81
2023/09/28 07:29:01;;;;;;;6.97;6.15;;;;;;;13.46;100.00;100836.22;5053735;28;20127;-81
2023/09/28 07:32:05;;;;;;;6.80;5.43;;;;;;;13.44;100.00;100838.94;5053656;28;20110;-81
2023/09/28 07:35:09;;;;;;;10.98;5.78;;;;;;;13.57;100.00;100844.31;5053502;28;20039;-81
2023/09/28 07:38:12;;;;;;;6.53;5.93;;;;;;;13.65;99.82;100844.69;5052788;28;20051;-81
2023/09/28 07:41:16;;;;;;;7.80;5.78;;;;;;;13.76;99.16;100843.22;5053278;28;20129;-81
2023/09/28 07:44:20;;;;;;;7.53;6.35;;;;;;;13.80;99.57;100852.59;5053525;28;20044;-81
2023/09/28 07:47:23;;;;;;;7.50;6.03;;;;;;;13.63;100.00;100849.22;5053467;28;20473;-81
2023/09/28 07:50:27;;;;;;;6.93;6.25;;;;;;;13.57;100.00;100861.88;5052867;28;20060;-81
2023/09/28 07:53:30;;;;;;;7.55;5.72;;;;;;;13.71;100.00;100856.63;5052931;28;20441;-81
2023/09/28 07:56:34;;;;;;;7.18;5.97;;;;;;;13.87;100.00;100853.91;5053049;28;20090;-81
2023/09/28 07:59:39;;;;;;;7.25;5.68;;;;;;;13.99;100.00;100849.72;5052771;28;20064;-81
2023/09/28 08:02:43;;;;;;;8.35;6.50;;;;;;;14.14;100.00;100854.88;5052913;28;20052;-81
2023/09/28 08:05:46;;;;;;;7.75;6.93;;;;;;;14.24;100.00;100854.28;5053114;28;20067;-81
2023/09/28 08:08:49;;;;;;;8.45;7.47;;;;;;;14.37;100.00;100850.78;5052939;28;20039;-81
2023/09/28 08:11:55;;;;;;;10.07;6.75;;;;;;;14.54;100.00;100852.38;5052904;28;20048;-81
2023/09/28 08:14:58;;;;;;;9.00;7.80;;;;;;;14.64;100.00;100845.63;5051732;28;20079;-81
2023/09/28 08:18:02;;;;;;;10.20;7.82;;;;;;;14.74;100.00;100845.00;5052624;28;20056;-81
2023/09/28 08:21:05;;;;;;;8.65;6.97;;;;;;;14.88;100.00;100848.44;5052637;28;20051;-81
2023/09/28 08:24:10;;;;;;;10.43;6.93;;;;;;;15.04;100.00;100855.34;5052870;28;20171;-82
2023/09/28 08:27:13;;;;;;;6.82;6.13;;;;;;;15.18;100.00;100849.16;5052489;28;20591;-82
2023/09/28 08:30:16;;;;;;;7.03;6.03;;;;;;;15.21;100.00;100856.84;5052532;28;20035;-82
2023/09/28 08:33:20;;;;;;;7.38;5.25;;;;;;;15.34;100.00;100848.00;5052503;28;20560;-82
2023/09/28 08:36:23;;;;;;;7.35;5.38;;;;;;;15.43;100.00;100851.84;5052979;28;20051;-83
2023/09/28 08:39:26;;;;;;;5.65;5.05;;;;;;;15.53;100.00;100846.78;5052619;28;20420;-83
2023/09/28 08:42:31;;;;;;;8.63;4.88;;;;;;;15.60;100.00;100853.31;5052335;28;20071;-83
2023/09/28 08:45:38;;;;;;;6.20;4.50;;;;;;;15.71;100.00;100860.53;5052116;28;20554;-82
2023/09/28 08:48:47;;;;;;;6.40;4.45;;;;;;;15.82;100.00;100860.63;5052074;28;20075;-82
2023/09/28 08:51:52;;;;;;;6.80;4.22;;;;;;;15.95;99.60;100850.94;5052138;28;20052;-82
2023/09/28 08:54:57;;;;;;;8.93;3.83;;;;;;;16.25;100.00;100849.75;5051648;28;20536;-81
2023/09/28 08:58:03;;;;;;;6.80;3.45;;;;;;;16.45;100.00;100841.22;5052626;28;20059;-81
2023/09/28 09:01:07;;;;;;;7.28;4.05;;;;;;;16.62;100.00;100842.66;5051463;28;20117;-81
2023/09/28 09:04:11;;;;;;;6.93;4.25;;;;;;;16.71;100.00;100836.69;5052620;28;20052;-81
2023/09/28 09:07:15;;;;;;;4.63;3.65;;;;;;;16.87;100.00;100843.53;5051949;28;20459;-81
2023/09/28 09:10:22;;;;;;;5.45;3.67;;;;;;;16.95;100.00;100839.38;5052027;28;20071;-81
2023/09/28 09:13:26;;;;;;;6.03;3.80;;;;;;;17.02;99.97;100834.47;5051886;28;20048;-81
2023/09/28 09:16:30;;;;;;;6.80;3.92;;;;;;;17.03;98.48;100841.44;5051702;28;20128;-81
2023/09/28 09:19:34;;;;;;;4.20;2.92;;;;;;;17.13;97.20;100836.31;5053250;28;20179;-81
2023/09/28 09:22:37;;;;;;;5.10;3.13;;;;;;;17.29;99.78;100831.56;5050981;28;20457;-82
2023/09/28 09:25:42;;;;;;;5.03;2.97;;;;;;;17.49;97.49;100834.50;5050654;28;20051;-81
2023/09/28 09:28:46;;;;;;;4.05;2.83;;;;;;;17.56;97.12;100830.44;5051845;28;20417;-81
2023/09/28 09:31:51;;;;;;;4.68;3.08;;;;;;;17.75;99.85;100825.41;5051857;28;20122;-81
2023/09/28 09:34:54;;;;;;;6.93;2.85;;;;;;;17.94;98.96;100827.50;5051394;28;20087;-82
2023/09/28 09:37:57;;;;;;;6.05;2.78;;;;;;;18.00;96.75;100832.31;5051401;28;20067;-81
2023/09/28 09:41:02;;;;;;;6.15;2.78;;;;;;;18.10;96.62;100832.41;5051503;28;20508;-82
2023/09/28 09:44:05;;;;;;;6.18;2.60;;;;;;;18.26;97.00;100826.75;5051218;28;20090;-81
2023/09/28 09:47:13;;;;;;;6.25;3.35;;;;;;;18.47;97.19;100834.75;5050753;28;20079;-82
2023/09/28 09:50:17;;;;;;;6.85;2.53;;;;;;;18.48;93.05;100837.31;5050040;28;20133;-82
2023/09/28 09:53:24;;;;;;;4.13;2.58;;;;;;;18.55;93.50;100833.19;5050029;28;20056;-82
2023/09/28 09:56:28;;;;;;;4.40;2.65;;;;;;;18.59;92.81;100817.88;5050618;28;20121;-82
2023/09/28 09:59:34;;;;;;;6.15;2.70;;;;;;;18.70;93.85;100825.81;5050145;28;20056;-82
2023/09/28 10:02:40;;;;;;;4.05;2.03;;;;;;;18.73;96.45;100817.66;5050601;28;20413;-82
2023/09/28 10:05:44;;;;;;;4.82;2.70;;;;;;;18.73;91.74;100817.66;5051282;28;20075;-82
2023/09/28 10:08:49;;;;;;;5.55;2.50;;;;;;;18.91;93.32;100811.78;5051180;28;20047;-82
2023/09/28 10:11:53;;;;;;;6.43;2.50;;;;;;;19.04;91.53;100807.16;5051359;28;20485;-82
2023/09/28 10:15:00;;;;;;;4.50;2.47;;;;;;;19.24;94.54;100813.44;5054748;28;20055;-82
2023/09/28 10:18:05;;;;;;;5.72;2.63;;;;;;;19.26;88.10;100816.81;5055332;28;20044;-82
2023/09/28 10:21:08;;;;;;;4.65;2.15;;;;;;;19.49;82.00;100818.34;5054999;28;20051;-63
2023/09/28 10:24:13;;;;;;;5.43;2.22;;;;;;;19.64;81.28;100813.56;5054733;28;20039;-63
2023/09/28 10:27:17;;;;;;;3.53;2.13;;;;;;;19.79;82.77;100813.25;5054630;28;20440;-63
2023/09/28 10:30:24;;;;;;;4.07;2.28;;;;;;;19.78;81.19;100819.50;5054721;28;20045;-63
2023/09/28 10:33:29;;;;;;;7.22;2.83;;;;;;;20.08;74.69;100814.19;5054711;28;20170;-77
2023/09/28 10:36:34;;;;;;;8.63;2.80;;;;;;;20.17;74.81;100818.69;5055166;28;20379;-77
2023/09/28 10:39:38;;;;;;;4.22;2.10;;;;;;;20.25;73.23;100819.81;5054379;28;20056;-77
2023/09/28 10:42:41;;;;;;;6.18;2.78;;;;;;;20.17;74.68;100818.69;5054495;28;20094;-76
2023/09/28 10:45:48;;;;;;;4.75;2.58;;;;;;;20.32;72.19;100811.16;5054449;28;20044;-76
2023/09/28 10:48:57;;;;;;;8.35;2.38;;;;;;;20.34;77.33;100806.56;5054824;28;20050;-76
2023/09/28 10:52:00;;;;;;;8.88;3.20;;;;;;;20.57;71.28;100803.69;5054336;28;20185;-75
2023/09/28 10:55:06;;;;;;;5.68;2.53;;;;;;;20.55;70.26;100809.16;5054079;28;20082;-76
2023/09/28 10:58:11;;;;;;;6.45;2.60;;;;;;;20.51;74.25;100812.19;5054703;28;20595;-76
2023/09/28 11:01:14;;;;;;;5.65;2.28;;;;;;;20.59;70.69;100810.56;5054262;28;20098;-76
2023/09/28 11:04:17;;;;;;;5.03;2.20;;;;;;;20.65;68.63;100801.22;5054083;28;20044;-76
2023/09/28 11:07:21;;;;;;;4.88;2.10;;;;;;;20.69;71.33;100801.78;5054052;28;20040;-76
2023/09/28 11:10:24;;;;;;;5.70;2.58;;;;;;;21.01;69.91;100799.66;5054330;28;20070;-76
2023/09/28 11:13:29;;;;;;;4.28;2.70;;;;;;;21.26;70.92;100794.75;5054101;28;20043;-63
2023/09/28 11:16:33;;;;;;;7.38;2.78;;;;;;;21.20;73.08;100774.88;5053484;28;20128;-63
2023/09/28 11:19:37;;;;;;;6.00;2.20;;;;;;;21.42;68.15;100786.19;5053559;28;20044;-64
2023/09/28 11:22:40;;;;;;;4.13;2.17;;;;;;;21.35;67.59;100783.28;5053720;28;20059;-75
2023/09/28 11:25:44;;;;;;;6.55;2.58;;;;;;;21.31;68.29;100782.69;5053458;28;20063;-77
2023/09/28 11:28:54;;;;;;;9.00;2.50;;;;;;;21.51;69.88;100783.50;5053675;28;20048;-76
2023/09/28 11:31:58;;;;;;;5.00;2.63;;;;;;;21.77;67.64;100761.56;5054175;28;20572;-76
2023/09/28 11:35:04;;;;;;;6.88;2.17;;;;;;;21.94;66.68;100776.75;5053642;28;20480;-75
2023/09/28 11:38:12;;;;;;;5.85;2.25;;;;;;;21.96;64.06;100781.94;5053460;28;20125;-75
2023/09/28 11:41:16;;;;;;;6.75;2.15;;;;;;;22.18;63.26;100775.41;5053452;28;20071;-79
2023/09/28 11:44:22;;;;;;;6.40;2.40;;;;;;;22.37;64.90;100775.28;5053257;28;20067;-70
2023/09/28 11:47:26;;;;;;;4.75;2.30;;;;;;;22.30;63.27;100758.19;5053256;28;20044;-71
2023/09/28 11:50:30;;;;;;;5.68;2.35;;;;;;;22.66;63.55;100752.91;5053186;28;20051;-73
2023/09/28 11:53:38;;;;;;;7.60;2.45;;;;;;;22.58;62.18;100766.16;5053043;28;20179;-76
2023/09/28 11:56:45;;;;;;;5.03;2.35;;;;;;;22.58;60.83;100748.31;5052401;28;20063;-77
2023/09/28 11:59:48;;;;;;;7.00;2.33;;;;;;;22.62;66.97;100740.84;5053019;28;20156;-75
2023/09/28 12:02:52;;;;;;;5.32;2.67;;;;;;;22.73;62.42;100740.63;5052906;28;20056;-79
2023/09/28 12:05:55;;;;;;;4.45;2.55;;;;;;;22.79;66.41;100741.84;5052854;28;20047;-73
2023/09/28 12:08:58;;;;;;;5.13;1.98;;;;;;;22.92;65.01;100732.44;5053107;28;20092;-77
2023/09/28 12:12:01;;;;;;;4.82;2.40;;;;;;;23.10;66.85;100734.25;5052696;28;20091;-74
2023/09/28 12:15:10;;;;;;;6.90;2.47;;;;;;;23.30;64.66;100725.06;5053462;28;20075;-83
2023/09/28 12:18:15;;;;;;;4.72;2.05;;;;;;;23.55;63.01;100723.38;5052683;28;20059;-82
2023/09/28 12:21:18;;;;;;;5.07;2.10;;;;;;;23.85;59.96;100723.84;5051840;28;20404;-84
2023/09/28 12:24:21;;;;;;;4.63;2.25;;;;;;;24.12;56.82;100704.91;5039730;28;20161;-83
2023/09/28 12:27:26;;;;;;;5.68;2.38;;;;;;;24.25;61.04;100704.44;5052748;28;20420;-79
2023/09/28 12:30:30;;;;;;;5.00;2.20;;;;;;;24.29;56.69;100705.75;5052737;28;20044;-77
2023/09/28 12:33:36;;;;;;;8.98;2.35;;;;;;;24.51;56.65;100704.31;5052538;28;20459;-79
2023/09/28 12:36:42;;;;;;;4.57;2.45;;;;;;;24.74;59.33;100700.97;5052015;28;20559;-82
2023/09/28 12:39:53;;;;;;;4.82;2.00;;;;;;;24.87;58.99;100703.97;5052610;28;20105;-84
2023/09/28 12:43:00;;;;;;;6.57;2.33;;;;;;;24.64;59.97;100709.16;5052740;28;20131;-86
2023/09/28 12:46:09;;;;;;;6.90;2.38;;;;;;;24.72;60.78;100701.13;5052960;28;20657;-81
2023/09/28 12:49:15;;;;;;;5.43;2.30;;;;;;;24.76;60.45;100702.47;5052620;28;20083;-83
2023/09/28 12:52:21;;;;;;;6.35;2.35;;;;;;;25.17;60.73;100709.63;5052325;28;20095;-86
2023/09/28 12:55:25;;;;;;;4.68;2.35;;;;;;;25.35;58.20;100694.19;5052188;28;20134;-83
2023/09/28 12:58:28;;;;;;;5.75;2.03;;;;;;;25.78;58.52;100700.03;5052235;28;20088;-85
2023/09/28 13:01:34;;;;;;;4.68;2.53;;;;;;;26.07;53.23;100688.69;5052108;28;20429;-86
2023/09/28 13:04:39;;;;;;;8.40;3.20;;;;;;;25.97;51.85;100685.38;5051159;28;20048;-76
2023/09/28 13:07:42;;;;;;;5.65;2.10;;;;;;;26.49;53.67;100687.41;5051833;28;20070;-81
2023/09/28 13:10:45;;;;;;;6.50;2.35;;;;;;;27.75;48.92;100681.19;5050840;28;20110;-64
2023/09/28 13:13:49;;;;;;;6.45;2.10;;;;;;;27.72;50.34;100675.38;5051565;28;20040;-68
2023/09/28 13:16:55;;;;;;;9.48;2.80;;;;;;;28.86;48.69;100679.00;5051849;28;20114;-64
2023/09/28 13:19:58;;;;;;;6.93;2.42;;;;;;;28.93;48.00;100685.25;5051434;28;20095;-65
2023/09/28 13:23:01;;;;;;;6.93;2.22;;;;;;;28.61;46.43;100685.84;5051301;28;20095;-66
2023/09/28 13:26:05;;;;;;;3.70;1.90;;;;;;;26.96;52.09;100680.91;5051324;28;20044;-66
2023/09/28 13:29:08;;;;;;;8.90;2.13;;;;;;;26.65;55.13;100689.13;5051227;28;20063;-66
2023/09/28 13:32:13;;;;;;;7.00;2.35;;;;;;;26.69;53.35;100676.19;5051351;28;20052;-66
2023/09/28 13:35:17;;;;;;;8.43;2.08;;;;;;;27.32;51.99;100674.88;5051246;28;20095;-66
2023/09/28 13:38:23;;;;;;;4.65;2.25;;;;;;;28.12;47.87;100665.09;5051515;28;20166;-63
2023/09/28 13:41:27;;;;;;;3.22;2.15;;;;;;;28.99;48.83;100662.09;5050957;28;20048;-64
2023/09/28 13:44:32;;;;;;;9.02;2.95;;;;;;;30.03;44.75;100658.47;5051023;28;20099;-66
2023/09/28 13:47:36;;;;;;;5.15;2.30;;;;;;;29.33;46.75;100668.56;5051854;28;20202;-65
2023/09/28 13:50:40;;;;;;;7.13;2.30;;;;;;;29.12;46.80;100656.81;5055262;28;20040;-73
2023/09/28 13:53:44;;;;;;;8.43;1.92;;;;;;;28.45;50.18;100665.44;5054783;28;20048;-65
2023/09/28 13:56:48;;;;;;;5.03;2.35;;;;;;;27.82;51.26;100654.44;5055217;28;20094;-64
2023/09/28 13:59:55;;;;;;;7.95;2.70;;;;;;;27.23;53.40;100660.72;5055190;28;20488;-65
2023/09/28 14:03:01;;;;;;;8.50;2.50;;;;;;;27.23;52.57;100654.50;5055026;28;20052;-65
2023/09/28 14:06:07;;;;;;;6.95;2.67;;;;;;;27.36;53.73;100657.38;5055307;28;20052;-85
2023/09/28 14:15:14;;;;;;;8.65;2.60;;;;;;;28.04;52.09;100645.38;5013305;28;20528;-86
2023/09/28 14:18:18;;;;;;;4.38;2.33;;;;;;;27.62;53.47;100651.50;5038989;28;20120;-85
2023/09/28 14:21:29;;;;;;;6.07;2.33;;;;;;;29.21;47.82;100657.50;5042708;28;20055;-84